createdAt,value
2022-11-06T00:05:46.514Z,0.01
2022-11-06T00:07:48.881Z,0
2022-11-06T02:09:29.583Z,0.01
2022-11-06T02:12:17.746Z,0
2022-11-06T05:34:50.477Z,0.01
2022-11-06T05:40:11.273Z,0.02
2022-11-06T05:42:30.326Z,0.03
2022-11-06T05:44:35.413Z,0.04
2022-11-06T05:47:29.082Z,0.07
2022-11-06T05:50:08.052Z,0.12
2022-11-06T05:52:33.413Z,0.19
2022-11-06T05:54:44.572Z,0.3
2022-11-06T05:57:44.317Z,0.55
2022-11-06T06:00:30.087Z,0.87
2022-11-06T06:03:01.644Z,1.45
2022-11-06T06:05:18.881Z,2
2022-11-06T06:07:22.241Z,2.66
2022-11-06T06:10:14.049Z,3.98
2022-11-06T06:12:51.749Z,6
2022-11-06T06:15:15.215Z,7.79
2022-11-06T06:17:24.603Z,10.35
2022-11-06T06:20:22.713Z,14.37
2022-11-06T06:23:09.405Z,18.35
2022-11-06T06:25:36.316Z,23.48
2022-11-06T06:27:51.896Z,27.33
2022-11-06T06:29:53.176Z,31.26
2022-11-06T06:32:43.378Z,37.61
2022-11-06T06:35:19.292Z,43.2
2022-11-06T06:37:40.979Z,49.14
2022-11-06T06:39:48.689Z,54
2022-11-06T06:42:44.635Z,61.24
2022-11-06T06:45:26.743Z,68.58
2022-11-06T06:47:54.581Z,74.96
2022-11-06T06:50:08.412Z,79.78
2022-11-06T06:52:08.052Z,85.64
2022-11-06T06:54:56.351Z,91.68
2022-11-06T06:57:30.658Z,97.92
2022-11-06T06:59:50.707Z,103.68
2022-11-06T07:01:56.643Z,109.04
2022-11-06T07:04:51.216Z,119.6
2022-11-06T07:07:31.642Z,135.04
2022-11-06T07:09:57.809Z,146.4
2022-11-06T07:12:09.967Z,158.08
2022-11-06T07:14:07.878Z,168.8
2022-11-06T07:16:54.457Z,182.8
2022-11-06T07:19:26.778Z,196.4
2022-11-06T07:21:45.087Z,200.4
2022-11-06T07:23:49.118Z,207.2
2022-11-06T07:26:41.814Z,219.1
2022-11-06T07:29:20.499Z,207.6
2022-11-06T07:31:44.885Z,190.6
2022-11-06T07:36:53.700Z,188.8
2022-11-06T07:39:38.566Z,186.8
2022-11-06T07:42:09.107Z,197.1
2022-11-06T07:44:25.387Z,207.6
2022-11-06T07:46:27.630Z,227.5
2022-11-06T07:49:18.424Z,253.2
2022-11-06T07:51:55.017Z,237.2
2022-11-06T07:54:17.660Z,273.2
2022-11-06T07:56:26.114Z,302.8
2022-11-06T07:59:23.154Z,329.2
2022-11-06T08:02:06.259Z,353.6
2022-11-06T08:04:34.970Z,365.1
2022-11-06T08:06:49.504Z,373.7
2022-11-06T08:08:51.814Z,380
2022-11-06T08:11:39.129Z,392.8
2022-11-06T08:14:14.216Z,399.2
2022-11-06T08:16:34.865Z,406
2022-11-06T08:18:41.549Z,412.9
2022-11-06T08:21:36.846Z,422
2022-11-06T08:24:21.871Z,424.4
2022-11-06T08:26:44.452Z,431.6
2022-11-06T08:28:57.201Z,434.5
2022-11-06T08:30:55.753Z,436.1
2022-11-06T08:33:43.120Z,446
2022-11-06T08:36:16.246Z,453.2
2022-11-06T08:38:35.154Z,456.3
2022-11-06T08:40:40.065Z,469.4
2022-11-06T08:43:33.621Z,470.4
2022-11-06T08:46:12.937Z,464.3
2022-11-06T08:48:37.911Z,496
2022-11-06T08:50:49.005Z,482.4
2022-11-06T08:53:48.747Z,499.5
2022-11-06T08:56:34.148Z,509.9
2022-11-06T08:59:06.335Z,512.1
2022-11-06T09:01:22.989Z,488.8
2022-11-06T09:03:25.877Z,514.2
2022-11-06T09:06:17.651Z,532.3
2022-11-06T09:08:55.147Z,537.4
2022-11-06T09:11:18.464Z,503
2022-11-06T09:13:27.773Z,550.7
2022-11-06T09:16:25.676Z,568.1
2022-11-06T09:19:08.968Z,557.6
2022-11-06T09:21:38.418Z,561.4
2022-11-06T09:23:53.842Z,544.3
2022-11-06T09:25:55.131Z,507.5
2022-11-06T09:28:45.039Z,647.2
2022-11-06T09:31:20.957Z,510.8
2022-11-06T09:33:42.774Z,595.2
2022-11-06T09:35:50.123Z,586.2
2022-11-06T09:38:46.423Z,605.2
2022-11-06T09:41:28.511Z,630
2022-11-06T09:44:04.973Z,643.6
2022-11-06T09:46:09.979Z,672.6
2022-11-06T09:48:09.579Z,683.5
2022-11-06T09:50:57.883Z,669.7
2022-11-06T09:53:31.841Z,684.8
2022-11-06T09:55:51.902Z,677.4
2022-11-06T09:57:57.732Z,712
2022-11-06T10:00:52.093Z,727.3
2022-11-06T10:03:32.387Z,768
2022-11-06T10:05:58.570Z,816.3
2022-11-06T10:08:10.631Z,823.6
2022-11-06T10:10:08.008Z,827.2
2022-11-06T10:15:26.929Z,747.8
2022-11-06T10:17:44.931Z,854.7
2022-11-06T10:19:49.050Z,811.5
2022-11-06T10:22:41.888Z,859.2
2022-11-06T10:25:20.320Z,790
2022-11-06T10:27:44.812Z,816.3
2022-11-06T10:29:55.162Z,838
2022-11-06T10:32:54.043Z,871.3
2022-11-06T10:35:38.848Z,881.2
2022-11-06T10:38:09.481Z,891.5
2022-11-06T10:40:25.774Z,891.8
2022-11-06T10:42:28.085Z,879.6
2022-11-06T10:45:19.038Z,859.5
2022-11-06T10:47:55.784Z,872
2022-11-06T10:50:18.205Z,835.8
2022-11-06T10:52:26.674Z,800
2022-11-06T10:55:23.779Z,736.3
2022-11-06T10:58:06.692Z,827.2
2022-11-06T11:00:35.628Z,814.4
2022-11-06T11:02:49.882Z,778.2
2022-11-06T11:04:52.845Z,758.4
2022-11-06T11:07:39.480Z,759
2022-11-06T11:10:14.362Z,763.5
2022-11-06T11:12:35.107Z,764.1
2022-11-06T11:14:41.779Z,728.3
2022-11-06T11:17:37.122Z,719.3
2022-11-06T11:20:18.198Z,717.4
2022-11-06T11:22:45.131Z,693.1
2022-11-06T11:24:57.884Z,760.3
2022-11-06T11:26:56.442Z,758.7
2022-11-06T11:29:43.760Z,767.6
2022-11-06T11:32:16.959Z,780.8
2022-11-06T11:34:35.936Z,787.5
2022-11-06T11:36:40.738Z,796.8
2022-11-06T11:39:34.477Z,799.3
2022-11-06T11:42:13.938Z,849.2
2022-11-06T11:44:39.176Z,835.8
2022-11-06T11:46:50.437Z,837.1
2022-11-06T11:49:50.492Z,784
2022-11-06T11:52:36.315Z,621.9
2022-11-06T11:55:07.437Z,705.2
2022-11-06T11:57:24.855Z,730.8
2022-11-06T11:59:28.048Z,1017.9
2022-11-06T12:02:22.307Z,936.6
2022-11-06T12:04:57.685Z,944.6
2022-11-06T12:07:21.301Z,628.3
2022-11-06T12:09:30.682Z,554.7
2022-11-06T12:12:28.927Z,316
2022-11-06T12:15:13.004Z,329.7
2022-11-06T12:17:42.868Z,381.1
2022-11-06T12:19:58.060Z,387.8
2022-11-06T12:21:59.455Z,444
2022-11-06T12:24:49.433Z,499.2
2022-11-06T12:27:25.102Z,547.2
2022-11-06T12:29:46.822Z,561.1
2022-11-06T12:31:54.333Z,561.9
2022-11-06T12:34:50.460Z,517.4
2022-11-06T12:37:32.580Z,563.8
2022-11-06T12:40:00.389Z,619.3
2022-11-06T12:42:14.096Z,653.7
2022-11-06T12:44:13.678Z,612.4
2022-11-06T12:47:01.498Z,632.6
2022-11-06T12:49:16.319Z,600.3
2022-11-06T12:51:17.005Z,607.5
2022-11-06T12:54:06.257Z,551.8
2022-11-06T12:56:41.500Z,590.2
2022-11-06T12:59:02.446Z,581.1
2022-11-06T13:01:09.290Z,532.6
2022-11-06T13:04:04.899Z,470.4
2022-11-06T13:06:46.354Z,453.6
2022-11-06T13:09:13.516Z,485.2
2022-11-06T13:11:26.721Z,456.6
2022-11-06T13:13:25.683Z,475.5
2022-11-06T13:16:13.237Z,425.9
2022-11-06T13:18:50.464Z,394
2022-11-06T13:21:05.703Z,423.5
2022-11-06T13:23:10.736Z,447
2022-11-06T13:26:04.462Z,436.1
2022-11-06T13:28:44.165Z,441.4
2022-11-06T13:31:09.663Z,465.7
2022-11-06T13:33:20.938Z,518
2022-11-06T13:36:21.050Z,524.8
2022-11-06T13:39:06.560Z,545.2
2022-11-06T13:41:38.159Z,534.8
2022-11-06T13:43:55.467Z,518.5
2022-11-06T13:45:58.817Z,506
2022-11-06T13:48:50.906Z,453.9
2022-11-06T13:51:28.631Z,411.6
2022-11-06T13:53:52.979Z,384.3
2022-11-06T13:56:01.844Z,351.6
2022-11-06T13:58:59.823Z,350.5
2022-11-06T14:01:43.920Z,353.9
2022-11-06T14:04:13.623Z,344.9
2022-11-06T14:06:29.111Z,326.8
2022-11-06T14:08:30.707Z,333.1
2022-11-06T14:11:21.003Z,330.2
2022-11-06T14:13:57.066Z,321
2022-11-06T14:16:18.922Z,317.1
2022-11-06T14:18:26.664Z,313.4
2022-11-06T14:21:23.130Z,306
2022-11-06T14:24:05.307Z,301.2
2022-11-06T14:26:33.532Z,289.3
2022-11-06T14:28:47.538Z,272.1
2022-11-06T14:31:11.378Z,252.7
2022-11-06T14:33:35.536Z,225.3
2022-11-06T14:36:09.971Z,214.8
2022-11-06T14:38:30.155Z,211.7
2022-11-06T14:40:36.373Z,209.7
2022-11-06T14:43:31.084Z,198.8
2022-11-06T14:46:11.603Z,193.2
2022-11-06T14:48:37.831Z,186.2
2022-11-06T14:50:49.934Z,181
2022-11-06T14:52:47.843Z,178.1
2022-11-06T14:55:34.513Z,176.8
2022-11-06T14:58:07.194Z,171.6
2022-11-06T15:00:28.414Z,163.32
2022-11-06T15:02:29.837Z,151.56
2022-11-06T15:05:22.622Z,136.44
2022-11-06T15:08:05.548Z,123.68
2022-11-06T15:10:25.596Z,110.52
2022-11-06T15:12:36.257Z,100.68
2022-11-06T15:15:35.148Z,91.6
2022-11-06T15:18:19.821Z,86.12
2022-11-06T15:20:51.773Z,76.56
2022-11-06T15:23:06.440Z,66.9
2022-11-06T15:25:08.692Z,53.98
2022-11-06T15:27:59.635Z,41.3
2022-11-06T15:30:36.551Z,31.85
2022-11-06T15:32:59.310Z,26.4
2022-11-06T15:35:07.817Z,23.85
2022-11-06T15:38:05.123Z,22.77
2022-11-06T15:40:48.191Z,22.66
2022-11-06T15:43:17.093Z,20.23
2022-11-06T15:45:31.692Z,17.6
2022-11-06T15:47:32.281Z,15
2022-11-06T15:50:21.577Z,10.16
2022-11-06T15:52:56.672Z,7.13
2022-11-06T15:55:23.517Z,5.61
2022-11-06T15:57:24.261Z,4.61
2022-11-06T16:00:19.675Z,3.77
2022-11-06T16:03:00.963Z,2.84
2022-11-06T16:05:28.106Z,2.18
2022-11-06T16:07:41.010Z,1.77
2022-11-06T16:09:39.946Z,1.38
2022-11-06T16:12:27.596Z,0.86
2022-11-06T16:15:00.521Z,0.48
2022-11-06T16:17:19.576Z,0.29
2022-11-06T16:19:24.660Z,0.2
2022-11-06T16:22:18.428Z,0.14
2022-11-06T16:24:57.974Z,0.1
2022-11-06T16:27:23.497Z,0.07
2022-11-06T16:29:34.707Z,0.06
2022-11-06T16:32:34.481Z,0.05
2022-11-06T16:35:20.228Z,0.04
2022-11-06T16:37:51.885Z,0.03
2022-11-06T16:40:09.294Z,0.02
2022-11-06T17:39:43.316Z,0.04
2022-11-06T17:42:23.945Z,0.05
2022-11-06T17:44:50.309Z,0.02
2022-11-06T18:24:14.440Z,0.01
2022-11-06T19:21:14.827Z,0.02
2022-11-06T19:31:37.142Z,0.01
2022-11-06T19:34:08.750Z,0.02
2022-11-06T19:41:21.227Z,0.01
2022-11-06T19:46:25.889Z,0.02
2022-11-06T19:48:31.366Z,0.01
2022-11-06T20:43:16.767Z,0.02
2022-11-06T21:10:44.968Z,0.01
2022-11-06T21:17:34.379Z,0.02
2022-11-06T21:23:02.061Z,0.01
2022-11-06T21:27:32.622Z,0.02
2022-11-06T21:49:47.860Z,0.01
2022-11-06T21:52:43.283Z,0.02
2022-11-06T22:09:42.691Z,0.01
2022-11-06T22:14:41.156Z,0.02
2022-11-06T22:17:20.583Z,0.01
2022-11-06T22:21:56.524Z,0.02
2022-11-06T22:24:56.415Z,0.01
2022-11-06T22:27:41.947Z,0.02
2022-11-06T22:32:30.527Z,0.01
2022-11-06T22:34:33.595Z,0.02
2022-11-06T22:37:25.301Z,0.01
2022-11-06T22:42:26.448Z,0.02
2022-11-06T22:55:02.380Z,0.01
2022-11-06T22:57:03.704Z,0.02
2022-11-06T23:09:54.743Z,0.01
2022-11-06T23:12:36.374Z,0.02
2022-11-06T23:15:04.289Z,0.01
2022-11-06T23:17:17.862Z,0.02
2022-11-06T23:24:20.670Z,0.01
2022-11-06T23:26:21.341Z,0.02
2022-11-06T23:29:10.672Z,0.01
2022-11-06T23:44:18.121Z,0.02
2022-11-06T23:46:31.293Z,0.01
2022-11-06T23:53:50.877Z,0.02
2022-11-06T23:56:10.218Z,0.01
